CheckWX is a tool to help pilots better visualize weather data.  It is not intended as a substitute for an official pre-flight weather briefing.

20:00:54 UTC

KATY METAR
Watertown Regional Airport
Watertown, South Dakota, USA
Current

8 mins ago

KATY 261953Z AUTO 17008KT 10SM CLR 21/11 A3005 RMK AO2 SLP176 T02110106
Observed
May-26 @ 19:53 UTC
Wind
  • 170° at 8 KTS
Visibility
10 SM
Flight Rules
VFR
Cloud Levels
  • Clear skies
Temperature
21°C / 70°F
Dewpoint
11°C / 52°F
Humidity
53%
Altimeter
30.05" Hg
Pressure
1017.62 hPa
Previous

1 hour ago

KATY 261853Z AUTO 16010KT 10SM CLR 20/09 A3006 RMK AO2 SLP179 T02000094
Observed
May-26 @ 18:53 UTC
Wind
  • 160° at 10 KTS
Visibility
10 SM
Flight Rules
VFR
Cloud Levels
  • Clear skies
Temperature
20°C / 68°F
Dewpoint
C / 48°F
Humidity
49%
Altimeter
30.06" Hg
Pressure
1017.92 hPa
Previous

2 hours ago

KATY 261753Z AUTO 15010G18KT 10SM CLR 19/11 A3006 RMK AO2 SLP180 T01940106 10200 20061 58006
Observed
May-26 @ 17:53 UTC
Wind
  • 150° at 10 KTS
  • Gusting to 18 KTS
Visibility
10 SM
Flight Rules
VFR
Cloud Levels
  • Clear skies
Temperature
19°C / 66°F
Dewpoint
11°C / 52°F
Humidity
60%
Altimeter
30.06" Hg
Pressure
1017.92 hPa